sensor_id;sensor_type;location;lat;lon;timestamp;temperature;humidity
61374;DHT22;47242;48.158;-1.586;2024-01-27T05:31:59;4.50;80.10
61374;DHT22;47242;48.158;-1.586;2024-01-27T05:34:24;4.40;80.20
61374;DHT22;47242;48.158;-1.586;2024-01-27T05:36:50;4.40;79.90
61374;DHT22;47242;48.158;-1.586;2024-01-27T05:39:15;4.40;79.80
61374;DHT22;47242;48.158;-1.586;2024-01-27T05:41:41;4.30;79.80
61374;DHT22;47242;48.158;-1.586;2024-01-27T05:44:06;4.30;79.80
61374;DHT22;47242;48.158;-1.586;2024-01-27T05:46:32;4.30;79.90
61374;DHT22;47242;48.158;-1.586;2024-01-27T05:48:58;4.30;80.10
61374;DHT22;47242;48.158;-1.586;2024-01-27T05:51:28;4.30;80.10
61374;DHT22;47242;48.158;-1.586;2024-01-27T05:53:54;4.30;80.40
61374;DHT22;47242;48.158;-1.586;2024-01-27T05:56:20;4.30;80.10
61374;DHT22;47242;48.158;-1.586;2024-01-27T05:58:46;4.30;79.90
61374;DHT22;47242;48.158;-1.586;2024-01-27T06:01:12;4.30;80.00
61374;DHT22;47242;48.158;-1.586;2024-01-27T06:03:41;4.30;79.70
61374;DHT22;47242;48.158;-1.586;2024-01-27T06:06:07;4.30;79.70
61374;DHT22;47242;48.158;-1.586;2024-01-27T06:08:33;4.30;79.50
61374;DHT22;47242;48.158;-1.586;2024-01-27T06:10:59;4.30;79.50
61374;DHT22;47242;48.158;-1.586;2024-01-27T06:13:24;4.30;79.40
61374;DHT22;47242;48.158;-1.586;2024-01-27T06:15:50;4.30;79.60
61374;DHT22;47242;48.158;-1.586;2024-01-27T06:18:16;4.30;80.00
61374;DHT22;47242;48.158;-1.586;2024-01-27T06:20:42;4.30;79.90
61374;DHT22;47242;48.158;-1.586;2024-01-27T06:23:08;4.30;79.90
61374;DHT22;47242;48.158;-1.586;2024-01-27T06:25:34;4.30;79.90
61374;DHT22;47242;48.158;-1.586;2024-01-27T06:27:59;4.30;79.80
61374;DHT22;47242;48.158;-1.586;2024-01-27T06:30:25;4.30;79.70
61374;DHT22;47242;48.158;-1.586;2024-01-27T06:32:51;4.30;79.60
61374;DHT22;47242;48.158;-1.586;2024-01-27T06:35:16;4.30;79.80
61374;DHT22;47242;48.158;-1.586;2024-01-27T06:37:42;4.20;80.00
61374;DHT22;47242;48.158;-1.586;2024-01-27T06:40:08;4.30;80.30
61374;DHT22;47242;48.158;-1.586;2024-01-27T06:42:37;4.30;80.30
61374;DHT22;47242;48.158;-1.586;2024-01-27T06:45:03;4.30;80.00
61374;DHT22;47242;48.158;-1.586;2024-01-27T06:47:29;4.30;80.20
61374;DHT22;47242;48.158;-1.586;2024-01-27T06:49:55;4.20;80.10
61374;DHT22;47242;48.158;-1.586;2024-01-27T06:52:20;4.30;79.90
61374;DHT22;47242;48.158;-1.586;2024-01-27T06:54:46;4.30;79.90
61374;DHT22;47242;48.158;-1.586;2024-01-27T06:57:22;4.30;80.20
61374;DHT22;47242;48.158;-1.586;2024-01-27T06:59:48;4.30;80.10
61374;DHT22;47242;48.158;-1.586;2024-01-27T07:02:24;4.40;80.10
61374;DHT22;47242;48.158;-1.586;2024-01-27T07:04:51;4.40;79.30
61374;DHT22;47242;48.158;-1.586;2024-01-27T07:07:18;4.40;79.50
61374;DHT22;47242;48.158;-1.586;2024-01-27T07:09:44;4.40;79.40
61374;DHT22;47242;48.158;-1.586;2024-01-27T07:12:09;4.40;78.90
61374;DHT22;47242;48.158;-1.586;2024-01-27T07:14:35;4.50;79.10
61374;DHT22;47242;48.158;-1.586;2024-01-27T07:17:02;4.50;79.00
61374;DHT22;47242;48.158;-1.586;2024-01-27T07:19:29;4.50;79.00
61374;DHT22;47242;48.158;-1.586;2024-01-27T07:21:54;4.50;79.20
61374;DHT22;47242;48.158;-1.586;2024-01-27T07:24:20;4.50;78.80
61374;DHT22;47242;48.158;-1.586;2024-01-27T07:26:46;4.60;78.30
61374;DHT22;47242;48.158;-1.586;2024-01-27T07:29:11;4.60;78.20
61374;DHT22;47242;48.158;-1.586;2024-01-27T07:31:37;4.60;77.70
61374;DHT22;47242;48.158;-1.586;2024-01-27T07:34:03;4.60;77.80
61374;DHT22;47242;48.158;-1.586;2024-01-27T07:36:31;4.60;77.50
61374;DHT22;47242;48.158;-1.586;2024-01-27T07:38:59;4.60;77.50
61374;DHT22;47242;48.158;-1.586;2024-01-27T07:41:25;4.70;77.50
61374;DHT22;47242;48.158;-1.586;2024-01-27T07:43:51;4.70;77.40
61374;DHT22;47242;48.158;-1.586;2024-01-27T07:46:17;4.70;77.30
61374;DHT22;47242;48.158;-1.586;2024-01-27T07:48:45;4.70;77.30
61374;DHT22;47242;48.158;-1.586;2024-01-27T07:51:11;4.60;77.30
61374;DHT22;47242;48.158;-1.586;2024-01-27T07:53:36;4.60;77.20
61374;DHT22;47242;48.158;-1.586;2024-01-27T07:56:02;4.60;77.20
61374;DHT22;47242;48.158;-1.586;2024-01-27T07:58:28;4.60;77.30
61374;DHT22;47242;48.158;-1.586;2024-01-27T08:00:53;4.70;77.30
61374;DHT22;47242;48.158;-1.586;2024-01-27T08:03:19;4.70;77.20
61374;DHT22;47242;48.158;-1.586;2024-01-27T08:05:45;4.70;77.20
61374;DHT22;47242;48.158;-1.586;2024-01-27T08:08:10;4.70;77.20
61374;DHT22;47242;48.158;-1.586;2024-01-27T08:10:36;4.70;77.20
61374;DHT22;47242;48.158;-1.586;2024-01-27T08:13:02;4.70;77.10
61374;DHT22;47242;48.158;-1.586;2024-01-27T08:15:28;4.80;77.10
61374;DHT22;47242;48.158;-1.586;2024-01-27T08:17:53;4.80;77.00
61374;DHT22;47242;48.158;-1.586;2024-01-27T08:20:19;4.80;77.00
61374;DHT22;47242;48.158;-1.586;2024-01-27T08:22:44;4.80;77.10
61374;DHT22;47242;48.158;-1.586;2024-01-27T08:25:11;4.80;77.00
61374;DHT22;47242;48.158;-1.586;2024-01-27T08:27:37;4.90;77.00
61374;DHT22;47242;48.158;-1.586;2024-01-27T08:30:02;5.00;76.90
61374;DHT22;47242;48.158;-1.586;2024-01-27T08:32:28;5.00;76.90
61374;DHT22;47242;48.158;-1.586;2024-01-27T08:34:54;5.10;76.70
61374;DHT22;47242;48.158;-1.586;2024-01-27T08:37:20;5.20;76.40
61374;DHT22;47242;48.158;-1.586;2024-01-27T08:39:46;5.20;76.20
61374;DHT22;47242;48.158;-1.586;2024-01-27T08:42:12;5.20;76.10
61374;DHT22;47242;48.158;-1.586;2024-01-27T08:44:38;5.30;76.00
61374;DHT22;47242;48.158;-1.586;2024-01-27T08:47:05;5.30;75.90
61374;DHT22;47242;48.158;-1.586;2024-01-27T08:49:30;5.40;76.00
61374;DHT22;47242;48.158;-1.586;2024-01-27T08:51:56;5.40;75.90
61374;DHT22;47242;48.158;-1.586;2024-01-27T08:54:22;5.50;75.90
61374;DHT22;47242;48.158;-1.586;2024-01-27T08:56:48;5.50;75.60
61374;DHT22;47242;48.158;-1.586;2024-01-27T08:59:13;5.60;75.20
61374;DHT22;47242;48.158;-1.586;2024-01-27T09:01:39;5.60;75.20
61374;DHT22;47242;48.158;-1.586;2024-01-27T09:04:05;5.60;75.10
61374;DHT22;47242;48.158;-1.586;2024-01-27T09:06:31;5.70;75.00
61374;DHT22;47242;48.158;-1.586;2024-01-27T09:08:57;5.70;75.00
61374;DHT22;47242;48.158;-1.586;2024-01-27T09:11:23;5.80;75.00
61374;DHT22;47242;48.158;-1.586;2024-01-27T09:13:49;5.80;74.70
61374;DHT22;47242;48.158;-1.586;2024-01-27T09:16:17;5.90;74.70
61374;DHT22;47242;48.158;-1.586;2024-01-27T09:18:43;5.90;74.30
61374;DHT22;47242;48.158;-1.586;2024-01-27T09:21:12;6.10;73.90
61374;DHT22;47242;48.158;-1.586;2024-01-27T09:23:38;6.20;73.80
61374;DHT22;47242;48.158;-1.586;2024-01-27T09:26:03;6.20;73.40
61374;DHT22;47242;48.158;-1.586;2024-01-27T09:28:30;6.40;73.10
61374;DHT22;47242;48.158;-1.586;2024-01-27T09:30:56;6.70;72.30
61374;DHT22;47242;48.158;-1.586;2024-01-27T09:33:22;7.20;71.50
61374;DHT22;47242;48.158;-1.586;2024-01-27T09:35:49;7.70;70.00
61374;DHT22;47242;48.158;-1.586;2024-01-27T09:38:15;8.10;68.80
61374;DHT22;47242;48.158;-1.586;2024-01-27T09:40:41;8.50;67.50
61374;DHT22;47242;48.158;-1.586;2024-01-27T09:43:06;8.70;66.40
61374;DHT22;47242;48.158;-1.586;2024-01-27T09:45:37;8.80;66.00
61374;DHT22;47242;48.158;-1.586;2024-01-27T09:48:03;8.80;65.30
61374;DHT22;47242;48.158;-1.586;2024-01-27T09:50:30;8.80;65.00
61374;DHT22;47242;48.158;-1.586;2024-01-27T09:52:56;8.50;65.50
61374;DHT22;47242;48.158;-1.586;2024-01-27T09:55:22;8.30;66.50
61374;DHT22;47242;48.158;-1.586;2024-01-27T09:57:48;8.20;67.10
61374;DHT22;47242;48.158;-1.586;2024-01-27T10:00:18;8.00;67.40
61374;DHT22;47242;48.158;-1.586;2024-01-27T10:02:46;7.90;67.90
61374;DHT22;47242;48.158;-1.586;2024-01-27T10:05:13;7.80;68.10
61374;DHT22;47242;48.158;-1.586;2024-01-27T10:07:41;7.80;68.70
61374;DHT22;47242;48.158;-1.586;2024-01-27T10:10:07;7.60;69.00
61374;DHT22;47242;48.158;-1.586;2024-01-27T10:12:40;7.60;69.50
61374;DHT22;47242;48.158;-1.586;2024-01-27T10:15:06;7.50;69.50
61374;DHT22;47242;48.158;-1.586;2024-01-27T10:17:32;7.50;69.70
61374;DHT22;47242;48.158;-1.586;2024-01-27T10:20:04;7.40;70.40
61374;DHT22;47242;48.158;-1.586;2024-01-27T10:22:40;7.40;70.10
61374;DHT22;47242;48.158;-1.586;2024-01-27T10:25:07;7.40;70.60
61374;DHT22;47242;48.158;-1.586;2024-01-27T10:27:33;7.40;70.70
61374;DHT22;47242;48.158;-1.586;2024-01-27T10:29:59;7.50;70.60
61374;DHT22;47242;48.158;-1.586;2024-01-27T10:32:25;7.50;70.70
61374;DHT22;47242;48.158;-1.586;2024-01-27T10:35:06;7.50;71.00
61374;DHT22;47242;48.158;-1.586;2024-01-27T10:37:35;7.50;71.00
61374;DHT22;47242;48.158;-1.586;2024-01-27T10:40:06;7.50;71.30
61374;DHT22;47242;48.158;-1.586;2024-01-27T10:42:37;7.50;71.40
61374;DHT22;47242;48.158;-1.586;2024-01-27T10:45:04;7.40;71.30
61374;DHT22;47242;48.158;-1.586;2024-01-27T10:47:32;7.50;71.10
61374;DHT22;47242;48.158;-1.586;2024-01-27T10:49:59;7.50;70.80
61374;DHT22;47242;48.158;-1.586;2024-01-27T10:52:32;7.50;71.40
61374;DHT22;47242;48.158;-1.586;2024-01-27T10:55:05;7.50;71.10
61374;DHT22;47242;48.158;-1.586;2024-01-27T10:57:33;7.50;70.60
61374;DHT22;47242;48.158;-1.586;2024-01-27T11:00:06;7.70;70.70
61374;DHT22;47242;48.158;-1.586;2024-01-27T11:02:34;7.80;70.70
61374;DHT22;47242;48.158;-1.586;2024-01-27T11:05:03;7.80;70.20
61374;DHT22;47242;48.158;-1.586;2024-01-27T11:07:32;7.90;70.00
61374;DHT22;47242;48.158;-1.586;2024-01-27T11:09:57;8.10;69.80
61374;DHT22;47242;48.158;-1.586;2024-01-27T11:12:24;8.30;69.40
61374;DHT22;47242;48.158;-1.586;2024-01-27T11:14:50;8.30;69.00
61374;DHT22;47242;48.158;-1.586;2024-01-27T11:17:17;8.50;69.30
61374;DHT22;47242;48.158;-1.586;2024-01-27T11:19:44;8.60;69.00
61374;DHT22;47242;48.158;-1.586;2024-01-27T11:22:24;8.70;69.40
61374;DHT22;47242;48.158;-1.586;2024-01-27T11:25:08;8.80;69.00
61374;DHT22;47242;48.158;-1.586;2024-01-27T11:27:35;8.80;68.20
61374;DHT22;47242;48.158;-1.586;2024-01-27T11:30:02;8.90;69.10
61374;DHT22;47242;48.158;-1.586;2024-01-27T11:32:27;9.00;68.00
61374;DHT22;47242;48.158;-1.586;2024-01-27T11:34:53;9.00;66.90
61374;DHT22;47242;48.158;-1.586;2024-01-27T11:37:19;9.00;66.70
61374;DHT22;47242;48.158;-1.586;2024-01-27T11:39:50;9.10;67.00
61374;DHT22;47242;48.158;-1.586;2024-01-27T11:42:17;9.10;67.50
61374;DHT22;47242;48.158;-1.586;2024-01-27T11:44:43;9.10;66.80
61374;DHT22;47242;48.158;-1.586;2024-01-27T11:47:17;9.10;66.70
61374;DHT22;47242;48.158;-1.586;2024-01-27T11:49:54;9.20;67.00
61374;DHT22;47242;48.158;-1.586;2024-01-27T11:52:20;9.20;66.50
61374;DHT22;47242;48.158;-1.586;2024-01-27T11:55:02;9.20;67.70
61374;DHT22;47242;48.158;-1.586;2024-01-27T11:57:28;9.20;67.10
61374;DHT22;47242;48.158;-1.586;2024-01-27T11:59:54;9.40;67.60
61374;DHT22;47242;48.158;-1.586;2024-01-27T12:02:20;9.40;67.30
61374;DHT22;47242;48.158;-1.586;2024-01-27T12:04:47;9.40;66.80
61374;DHT22;47242;48.158;-1.586;2024-01-27T12:07:14;9.40;67.30
61374;DHT22;47242;48.158;-1.586;2024-01-27T12:09:39;9.40;67.10
61374;DHT22;47242;48.158;-1.586;2024-01-27T12:12:06;9.40;66.40
61374;DHT22;47242;48.158;-1.586;2024-01-27T12:14:39;9.50;66.90
61374;DHT22;47242;48.158;-1.586;2024-01-27T12:17:09;9.50;66.70
61374;DHT22;47242;48.158;-1.586;2024-01-27T12:20:14;9.70;66.50
61374;DHT22;47242;48.158;-1.586;2024-01-27T12:22:46;9.80;67.10
61374;DHT22;47242;48.158;-1.586;2024-01-27T12:25:12;9.80;65.80
61374;DHT22;47242;48.158;-1.586;2024-01-27T12:27:40;9.80;65.90
61374;DHT22;47242;48.158;-1.586;2024-01-27T12:30:07;9.80;65.90
61374;DHT22;47242;48.158;-1.586;2024-01-27T12:32:33;9.70;66.30
61374;DHT22;47242;48.158;-1.586;2024-01-27T12:35:04;9.80;66.10
61374;DHT22;47242;48.158;-1.586;2024-01-27T12:37:29;9.90;66.30
61374;DHT22;47242;48.158;-1.586;2024-01-27T12:39:55;10.00;66.90
61374;DHT22;47242;48.158;-1.586;2024-01-27T12:42:30;10.10;67.10
61374;DHT22;47242;48.158;-1.586;2024-01-27T12:44:59;10.20;66.60
61374;DHT22;47242;48.158;-1.586;2024-01-27T12:47:24;10.20;65.80
61374;DHT22;47242;48.158;-1.586;2024-01-27T12:49:50;10.20;65.50
61374;DHT22;47242;48.158;-1.586;2024-01-27T12:52:16;10.30;65.40
61374;DHT22;47242;48.158;-1.586;2024-01-27T12:54:41;10.30;64.80
61374;DHT22;47242;48.158;-1.586;2024-01-27T12:57:07;10.40;64.60
61374;DHT22;47242;48.158;-1.586;2024-01-27T12:59:34;10.50;63.80
61374;DHT22;47242;48.158;-1.586;2024-01-27T13:01:59;10.50;63.90
61374;DHT22;47242;48.158;-1.586;2024-01-27T13:04:25;10.50;63.80
61374;DHT22;47242;48.158;-1.586;2024-01-27T13:06:51;10.60;63.60
61374;DHT22;47242;48.158;-1.586;2024-01-27T13:09:17;10.50;63.60
61374;DHT22;47242;48.158;-1.586;2024-01-27T13:11:43;10.50;63.80
61374;DHT22;47242;48.158;-1.586;2024-01-27T13:14:10;10.40;63.90
61374;DHT22;47242;48.158;-1.586;2024-01-27T13:16:37;10.40;63.60
61374;DHT22;47242;48.158;-1.586;2024-01-27T13:19:03;10.40;64.50
61374;DHT22;47242;48.158;-1.586;2024-01-27T13:21:28;10.50;64.90
61374;DHT22;47242;48.158;-1.586;2024-01-27T13:23:54;10.50;64.50
61374;DHT22;47242;48.158;-1.586;2024-01-27T13:26:22;10.50;63.40
61374;DHT22;47242;48.158;-1.586;2024-01-27T13:28:48;10.40;63.50
61374;DHT22;47242;48.158;-1.586;2024-01-27T13:31:14;10.30;63.30
61374;DHT22;47242;48.158;-1.586;2024-01-27T13:33:39;10.30;63.30
61374;DHT22;47242;48.158;-1.586;2024-01-27T13:36:05;10.20;63.40
61374;DHT22;47242;48.158;-1.586;2024-01-27T13:38:31;10.30;63.50
61374;DHT22;47242;48.158;-1.586;2024-01-27T13:40:57;10.30;63.70
61374;DHT22;47242;48.158;-1.586;2024-01-27T13:43:22;10.30;63.60
61374;DHT22;47242;48.158;-1.586;2024-01-27T13:45:48;10.30;64.70
61374;DHT22;47242;48.158;-1.586;2024-01-27T13:48:14;10.30;64.50
61374;DHT22;47242;48.158;-1.586;2024-01-27T13:50:41;10.40;64.70
61374;DHT22;47242;48.158;-1.586;2024-01-27T13:53:06;10.50;64.40
61374;DHT22;47242;48.158;-1.586;2024-01-27T13:55:32;10.50;64.20
61374;DHT22;47242;48.158;-1.586;2024-01-27T13:57:58;10.60;64.40
61374;DHT22;47242;48.158;-1.586;2024-01-27T14:00:23;10.60;62.90
61374;DHT22;47242;48.158;-1.586;2024-01-27T14:02:49;10.70;63.30
61374;DHT22;47242;48.158;-1.586;2024-01-27T14:05:15;10.60;63.00
61374;DHT22;47242;48.158;-1.586;2024-01-27T14:07:40;10.60;64.00
61374;DHT22;47242;48.158;-1.586;2024-01-27T14:10:06;10.60;63.60
61374;DHT22;47242;48.158;-1.586;2024-01-27T14:12:32;10.60;63.40
61374;DHT22;47242;48.158;-1.586;2024-01-27T14:15:04;10.50;62.60
61374;DHT22;47242;48.158;-1.586;2024-01-27T14:17:34;10.50;63.00
61374;DHT22;47242;48.158;-1.586;2024-01-27T14:20:03;10.50;63.00
61374;DHT22;47242;48.158;-1.586;2024-01-27T14:22:30;10.50;63.60
61374;DHT22;47242;48.158;-1.586;2024-01-27T14:24:55;10.50;63.70
61374;DHT22;47242;48.158;-1.586;2024-01-27T14:27:21;10.50;63.20
61374;DHT22;47242;48.158;-1.586;2024-01-27T14:29:56;10.50;62.90
61374;DHT22;47242;48.158;-1.586;2024-01-27T14:32:22;10.50;62.70
61374;DHT22;47242;48.158;-1.586;2024-01-27T14:34:49;10.50;62.60
61374;DHT22;47242;48.158;-1.586;2024-01-27T14:37:15;10.60;62.10
61374;DHT22;47242;48.158;-1.586;2024-01-27T14:39:47;10.60;62.60
61374;DHT22;47242;48.158;-1.586;2024-01-27T14:42:13;10.60;62.70
61374;DHT22;47242;48.158;-1.586;2024-01-27T14:44:40;10.60;62.50
61374;DHT22;47242;48.158;-1.586;2024-01-27T14:47:06;10.70;62.70
61374;DHT22;47242;48.158;-1.586;2024-01-27T14:49:33;10.80;62.70
61374;DHT22;47242;48.158;-1.586;2024-01-27T14:51:59;10.70;62.70
61374;DHT22;47242;48.158;-1.586;2024-01-27T14:54:24;10.70;62.60
61374;DHT22;47242;48.158;-1.586;2024-01-27T14:56:50;10.70;62.90
61374;DHT22;47242;48.158;-1.586;2024-01-27T14:59:16;10.70;63.80
61374;DHT22;47242;48.158;-1.586;2024-01-27T15:01:41;10.70;64.00
61374;DHT22;47242;48.158;-1.586;2024-01-27T15:04:07;10.70;64.10
61374;DHT22;47242;48.158;-1.586;2024-01-27T15:06:33;10.70;64.00
61374;DHT22;47242;48.158;-1.586;2024-01-27T15:08:59;10.70;63.40
61374;DHT22;47242;48.158;-1.586;2024-01-27T15:11:25;10.70;63.40
61374;DHT22;47242;48.158;-1.586;2024-01-27T15:13:51;10.70;63.40
61374;DHT22;47242;48.158;-1.586;2024-01-27T15:16:16;10.70;64.20
61374;DHT22;47242;48.158;-1.586;2024-01-27T15:18:42;10.70;63.30
61374;DHT22;47242;48.158;-1.586;2024-01-27T15:21:10;10.70;64.00
61374;DHT22;47242;48.158;-1.586;2024-01-27T15:23:38;10.60;63.90
61374;DHT22;47242;48.158;-1.586;2024-01-27T15:26:08;10.60;63.40
61374;DHT22;47242;48.158;-1.586;2024-01-27T15:28:34;10.60;63.50
61374;DHT22;47242;48.158;-1.586;2024-01-27T15:31:03;10.50;63.20
61374;DHT22;47242;48.158;-1.586;2024-01-27T15:33:29;10.60;63.90
61374;DHT22;47242;48.158;-1.586;2024-01-27T15:35:54;10.60;64.10
61374;DHT22;47242;48.158;-1.586;2024-01-27T15:38:20;10.50;63.60
61374;DHT22;47242;48.158;-1.586;2024-01-27T15:40:46;10.50;63.70
61374;DHT22;47242;48.158;-1.586;2024-01-27T15:43:11;10.50;63.70
61374;DHT22;47242;48.158;-1.586;2024-01-27T15:45:37;10.50;63.80
61374;DHT22;47242;48.158;-1.586;2024-01-27T15:48:03;10.40;63.80
61374;DHT22;47242;48.158;-1.586;2024-01-27T15:50:28;10.30;63.40
61374;DHT22;47242;48.158;-1.586;2024-01-27T15:52:56;10.30;63.60
61374;DHT22;47242;48.158;-1.586;2024-01-27T15:55:23;10.20;63.70
61374;DHT22;47242;48.158;-1.586;2024-01-27T15:57:49;10.20;64.00
61374;DHT22;47242;48.158;-1.586;2024-01-27T16:00:18;10.20;64.00
61374;DHT22;47242;48.158;-1.586;2024-01-27T16:02:44;10.10;64.70
61374;DHT22;47242;48.158;-1.586;2024-01-27T16:05:10;10.10;65.70
61374;DHT22;47242;48.158;-1.586;2024-01-27T16:07:36;10.00;65.70
61374;DHT22;47242;48.158;-1.586;2024-01-27T16:10:26;9.80;66.00
61374;DHT22;47242;48.158;-1.586;2024-01-27T16:12:52;9.80;66.30
61374;DHT22;47242;48.158;-1.586;2024-01-27T16:15:17;9.80;66.40
61374;DHT22;47242;48.158;-1.586;2024-01-27T16:17:52;9.70;66.60
61374;DHT22;47242;48.158;-1.586;2024-01-27T16:20:18;9.70;66.90
61374;DHT22;47242;48.158;-1.586;2024-01-27T16:22:43;9.60;67.10
61374;DHT22;47242;48.158;-1.586;2024-01-27T16:25:09;9.50;66.80
61374;DHT22;47242;48.158;-1.586;2024-01-27T16:27:37;9.50;67.00
61374;DHT22;47242;48.158;-1.586;2024-01-27T16:30:04;9.40;67.10
61374;DHT22;47242;48.158;-1.586;2024-01-27T16:32:29;9.40;67.30
61374;DHT22;47242;48.158;-1.586;2024-01-27T16:34:55;9.40;67.50
61374;DHT22;47242;48.158;-1.586;2024-01-27T16:37:21;9.30;67.80
61374;DHT22;47242;48.158;-1.586;2024-01-27T16:39:47;9.30;68.10
61374;DHT22;47242;48.158;-1.586;2024-01-27T16:42:13;9.20;68.40
61374;DHT22;47242;48.158;-1.586;2024-01-27T16:44:39;9.20;68.90
61374;DHT22;47242;48.158;-1.586;2024-01-27T16:47:05;9.20;69.10
61374;DHT22;47242;48.158;-1.586;2024-01-27T16:49:32;9.10;69.30
61374;DHT22;47242;48.158;-1.586;2024-01-27T16:51:58;9.10;69.50
61374;DHT22;47242;48.158;-1.586;2024-01-27T16:54:23;9.00;69.80
61374;DHT22;47242;48.158;-1.586;2024-01-27T16:56:50;9.00;70.00
61374;DHT22;47242;48.158;-1.586;2024-01-27T16:59:17;8.90;70.30
61374;DHT22;47242;48.158;-1.586;2024-01-27T17:01:43;8.90;70.60
61374;DHT22;47242;48.158;-1.586;2024-01-27T17:04:09;8.80;70.90
61374;DHT22;47242;48.158;-1.586;2024-01-27T17:06:40;8.80;71.00
61374;DHT22;47242;48.158;-1.586;2024-01-27T17:09:07;8.70;71.40
61374;DHT22;47242;48.158;-1.586;2024-01-27T17:11:33;8.70;71.70
61374;DHT22;47242;48.158;-1.586;2024-01-27T17:13:58;8.70;71.80
61374;DHT22;47242;48.158;-1.586;2024-01-27T17:16:28;8.70;72.30
61374;DHT22;47242;48.158;-1.586;2024-01-27T17:18:53;8.60;72.30
61374;DHT22;47242;48.158;-1.586;2024-01-27T17:21:19;8.60;72.60
61374;DHT22;47242;48.158;-1.586;2024-01-27T17:23:47;8.60;72.80
61374;DHT22;47242;48.158;-1.586;2024-01-27T17:26:13;8.50;73.00
61374;DHT22;47242;48.158;-1.586;2024-01-27T17:28:40;8.50;73.20
61374;DHT22;47242;48.158;-1.586;2024-01-27T17:31:06;8.40;73.30
61374;DHT22;47242;48.158;-1.586;2024-01-27T17:33:35;8.40;73.30
61374;DHT22;47242;48.158;-1.586;2024-01-27T17:36:00;8.40;73.40
61374;DHT22;47242;48.158;-1.586;2024-01-27T17:38:26;8.40;73.60
61374;DHT22;47242;48.158;-1.586;2024-01-27T17:40:52;8.30;73.70
61374;DHT22;47242;48.158;-1.586;2024-01-27T17:43:18;8.30;73.90
61374;DHT22;47242;48.158;-1.586;2024-01-27T17:45:44;8.30;73.90
61374;DHT22;47242;48.158;-1.586;2024-01-27T17:48:10;8.20;74.20
61374;DHT22;47242;48.158;-1.586;2024-01-27T17:50:38;8.20;74.20
61374;DHT22;47242;48.158;-1.586;2024-01-27T17:53:04;8.20;74.40
61374;DHT22;47242;48.158;-1.586;2024-01-27T17:55:36;8.20;74.40
61374;DHT22;47242;48.158;-1.586;2024-01-27T17:58:22;8.10;74.50
61374;DHT22;47242;48.158;-1.586;2024-01-27T18:00:48;8.10;74.50
61374;DHT22;47242;48.158;-1.586;2024-01-27T18:03:14;8.10;74.60
61374;DHT22;47242;48.158;-1.586;2024-01-27T18:05:40;8.10;74.70
61374;DHT22;47242;48.158;-1.586;2024-01-27T18:08:06;8.10;74.80
61374;DHT22;47242;48.158;-1.586;2024-01-27T18:10:32;8.10;74.90
61374;DHT22;47242;48.158;-1.586;2024-01-27T18:12:59;8.10;74.90
61374;DHT22;47242;48.158;-1.586;2024-01-27T18:15:25;8.00;75.00
61374;DHT22;47242;48.158;-1.586;2024-01-27T18:17:51;8.00;75.10
61374;DHT22;47242;48.158;-1.586;2024-01-27T18:20:18;8.00;75.30
61374;DHT22;47242;48.158;-1.586;2024-01-27T18:22:44;7.90;75.40
61374;DHT22;47242;48.158;-1.586;2024-01-27T18:25:10;7.90;75.60
61374;DHT22;47242;48.158;-1.586;2024-01-27T18:27:35;7.90;75.70
61374;DHT22;47242;48.158;-1.586;2024-01-27T18:30:01;7.90;75.80
61374;DHT22;47242;48.158;-1.586;2024-01-27T18:32:30;7.90;75.90
61374;DHT22;47242;48.158;-1.586;2024-01-27T18:34:56;7.80;75.90
61374;DHT22;47242;48.158;-1.586;2024-01-27T18:37:21;7.80;75.90
61374;DHT22;47242;48.158;-1.586;2024-01-27T18:39:47;7.80;76.00
61374;DHT22;47242;48.158;-1.586;2024-01-27T18:42:12;7.80;76.00
61374;DHT22;47242;48.158;-1.586;2024-01-27T18:44:38;7.80;76.20
61374;DHT22;47242;48.158;-1.586;2024-01-27T18:47:05;7.80;76.30
61374;DHT22;47242;48.158;-1.586;2024-01-27T18:49:30;7.80;76.40
61374;DHT22;47242;48.158;-1.586;2024-01-27T18:51:56;7.80;76.40
61374;DHT22;47242;48.158;-1.586;2024-01-27T18:54:21;7.80;76.40
61374;DHT22;47242;48.158;-1.586;2024-01-27T18:56:54;7.70;76.50
61374;DHT22;47242;48.158;-1.586;2024-01-27T18:59:20;7.70;76.60
61374;DHT22;47242;48.158;-1.586;2024-01-27T19:01:46;7.80;76.80
61374;DHT22;47242;48.158;-1.586;2024-01-27T19:04:23;7.80;76.70
61374;DHT22;47242;48.158;-1.586;2024-01-27T19:07:09;7.80;76.70
61374;DHT22;47242;48.158;-1.586;2024-01-27T19:09:38;7.80;76.70
61374;DHT22;47242;48.158;-1.586;2024-01-27T19:12:04;7.80;76.70
61374;DHT22;47242;48.158;-1.586;2024-01-27T19:14:29;7.80;76.80
61374;DHT22;47242;48.158;-1.586;2024-01-27T19:16:55;7.80;76.80
61374;DHT22;47242;48.158;-1.586;2024-01-27T19:19:21;7.80;76.70
61374;DHT22;47242;48.158;-1.586;2024-01-27T19:21:47;7.90;76.70
61374;DHT22;47242;48.158;-1.586;2024-01-27T19:24:12;7.80;76.70
61374;DHT22;47242;48.158;-1.586;2024-01-27T19:26:38;7.80;76.90
61374;DHT22;47242;48.158;-1.586;2024-01-27T19:29:04;7.80;77.00
61374;DHT22;47242;48.158;-1.586;2024-01-27T19:31:29;7.80;77.00
61374;DHT22;47242;48.158;-1.586;2024-01-27T19:33:57;7.80;77.00
61374;DHT22;47242;48.158;-1.586;2024-01-27T19:36:22;7.80;77.20
61374;DHT22;47242;48.158;-1.586;2024-01-27T19:38:48;7.80;77.20
61374;DHT22;47242;48.158;-1.586;2024-01-27T19:41:14;7.70;77.30
61374;DHT22;47242;48.158;-1.586;2024-01-27T19:43:41;7.80;77.30
61374;DHT22;47242;48.158;-1.586;2024-01-27T19:46:09;7.70;77.40
61374;DHT22;47242;48.158;-1.586;2024-01-27T19:48:35;7.70;77.60
61374;DHT22;47242;48.158;-1.586;2024-01-27T19:51:02;7.70;77.60
61374;DHT22;47242;48.158;-1.586;2024-01-27T19:53:27;7.70;77.70
61374;DHT22;47242;48.158;-1.586;2024-01-27T19:55:53;7.70;77.80
61374;DHT22;47242;48.158;-1.586;2024-01-27T19:58:19;7.70;77.90
61374;DHT22;47242;48.158;-1.586;2024-01-27T20:00:44;7.60;78.00
61374;DHT22;47242;48.158;-1.586;2024-01-27T20:03:10;7.60;77.90
61374;DHT22;47242;48.158;-1.586;2024-01-27T20:05:37;7.60;78.00
61374;DHT22;47242;48.158;-1.586;2024-01-27T20:08:02;7.60;78.10
61374;DHT22;47242;48.158;-1.586;2024-01-27T20:10:28;7.60;78.10
61374;DHT22;47242;48.158;-1.586;2024-01-27T20:12:54;7.50;78.10
61374;DHT22;47242;48.158;-1.586;2024-01-27T20:15:23;7.50;78.10
61374;DHT22;47242;48.158;-1.586;2024-01-27T20:17:51;7.50;78.10
61374;DHT22;47242;48.158;-1.586;2024-01-27T20:20:17;7.50;78.10
61374;DHT22;47242;48.158;-1.586;2024-01-27T20:22:44;7.50;78.30
61374;DHT22;47242;48.158;-1.586;2024-01-27T20:25:10;7.50;78.30
61374;DHT22;47242;48.158;-1.586;2024-01-27T20:27:35;7.40;78.40
61374;DHT22;47242;48.158;-1.586;2024-01-27T20:30:02;7.40;78.50
61374;DHT22;47242;48.158;-1.586;2024-01-27T20:32:28;7.40;78.50
61374;DHT22;47242;48.158;-1.586;2024-01-27T20:34:54;7.40;78.60
61374;DHT22;47242;48.158;-1.586;2024-01-27T20:37:20;7.30;78.70
61374;DHT22;47242;48.158;-1.586;2024-01-27T20:39:45;7.30;78.80
61374;DHT22;47242;48.158;-1.586;2024-01-27T20:42:13;7.30;78.90
61374;DHT22;47242;48.158;-1.586;2024-01-27T20:44:39;7.30;78.90
61374;DHT22;47242;48.158;-1.586;2024-01-27T20:47:05;7.20;79.10
61374;DHT22;47242;48.158;-1.586;2024-01-27T20:49:31;7.20;79.10
61374;DHT22;47242;48.158;-1.586;2024-01-27T20:51:56;7.20;79.20
61374;DHT22;47242;48.158;-1.586;2024-01-27T20:54:22;7.20;79.30
61374;DHT22;47242;48.158;-1.586;2024-01-27T20:56:48;7.20;79.50